Time;durP1;ratioP1;P1;durP2;ratioP2;P2;SDS_P1;SDS_P2;PMS_P1;PMS_P2;Temp;Humidity;BMP_temperature;BMP_pressure;BME280_temperature;BME280_humidity;BME280_pressure;Samples;Min_cycle;Max_cycle;Signal;HPM_P1;HPM_P2
2023/09/30 00:02:15;;;;;;;9.47;6.90;;;15.30;68.80;;;;;;5045481;28;20235;-33
2023/09/30 00:04:44;;;;;;;6.07;4.90;;;15.30;68.90;;;;;;5046005;28;20200;-33
2023/09/30 00:07:11;;;;;;;7.20;4.87;;;15.30;68.90;;;;;;5043441;28;20439;-34
2023/09/30 00:09:39;;;;;;;7.23;5.70;;;15.30;68.90;;;;;;5043669;28;20192;-36
2023/09/30 00:12:07;;;;;;;8.30;6.10;;;15.30;69.00;;;;;;5045303;28;20270;-33
2023/09/30 00:14:35;;;;;;;9.17;5.07;;;15.30;68.90;;;;;;5043529;28;20219;-33
2023/09/30 00:17:03;;;;;;;7.13;5.00;;;15.30;69.00;;;;;;5044941;28;20228;-33
2023/09/30 00:19:32;;;;;;;9.27;5.30;;;15.30;69.00;;;;;;5045084;28;20624;-33
2023/09/30 00:22:00;;;;;;;5.20;4.70;;;15.30;69.00;;;;;;5045019;28;20209;-33
2023/09/30 00:24:27;;;;;;;7.33;5.03;;;15.30;69.00;;;;;;5043373;28;20337;-33
2023/09/30 00:26:59;;;;;;;9.10;5.10;;;15.30;69.00;;;;;;5045019;28;20218;-33
2023/09/30 00:29:28;;;;;;;7.83;5.03;;;15.30;69.00;;;;;;5043248;28;20242;-33
2023/09/30 00:32:00;;;;;;;8.60;5.47;;;15.20;69.00;;;;;;5044930;28;20674;-33
2023/09/30 00:34:27;;;;;;;7.87;4.67;;;15.20;69.00;;;;;;5043348;28;20222;-34
2023/09/30 00:36:54;;;;;;;7.00;5.03;;;15.20;69.00;;;;;;5043473;28;20196;-33
2023/09/30 00:39:22;;;;;;;6.93;5.33;;;15.20;69.10;;;;;;5044108;28;20208;-34
2023/09/30 00:41:50;;;;;;;8.07;5.47;;;15.20;69.00;;;;;;5045416;28;20209;-34
2023/09/30 00:44:21;;;;;;;8.93;5.07;;;15.20;69.00;;;;;;5044669;28;20274;-34
2023/09/30 00:46:49;;;;;;;6.50;5.10;;;15.20;69.10;;;;;;5045145;28;20291;-33
2023/09/30 00:49:18;;;;;;;7.93;5.70;;;15.20;69.10;;;;;;5043457;28;20220;-33
2023/09/30 00:51:49;;;;;;;8.30;6.00;;;15.20;69.10;;;;;;5043054;28;20235;-33
2023/09/30 00:54:21;;;;;;;7.70;5.57;;;15.20;69.10;;;;;;5043067;28;20216;-33
2023/09/30 00:56:50;;;;;;;11.07;6.40;;;15.10;69.00;;;;;;5043121;28;20262;-33
2023/09/30 00:59:19;;;;;;;8.43;5.70;;;15.10;69.00;;;;;;5028359;28;20750;-33
2023/09/30 01:01:47;;;;;;;6.57;5.40;;;15.20;69.20;;;;;;5029733;28;20259;-33
2023/09/30 01:04:15;;;;;;;6.60;5.20;;;15.10;69.10;;;;;;5035795;28;20686;-33
2023/09/30 01:06:42;;;;;;;5.30;4.77;;;15.10;69.20;;;;;;5041882;28;20205;-34
2023/09/30 01:09:10;;;;;;;5.90;5.10;;;15.10;69.20;;;;;;5039558;28;20208;-34
2023/09/30 01:11:37;;;;;;;9.70;5.80;;;15.10;69.20;;;;;;5046414;28;20231;-33
2023/09/30 01:14:04;;;;;;;5.90;4.70;;;15.10;69.20;;;;;;5048103;28;20631;-33
2023/09/30 01:16:31;;;;;;;5.73;4.70;;;15.10;69.30;;;;;;5032570;28;20193;-34
2023/09/30 01:19:02;;;;;;;7.23;4.77;;;15.00;69.20;;;;;;5046475;28;20799;-33
2023/09/30 01:21:34;;;;;;;7.97;4.80;;;15.00;69.20;;;;;;5046533;28;20228;-33
2023/09/30 01:24:01;;;;;;;6.70;5.07;;;15.00;69.30;;;;;;5046216;28;20212;-33
2023/09/30 01:26:30;;;;;;;6.00;4.37;;;15.00;69.30;;;;;;5046008;28;20232;-33
2023/09/30 01:28:58;;;;;;;6.47;5.37;;;15.00;69.40;;;;;;5047677;28;20192;-33
2023/09/30 01:31:25;;;;;;;7.00;5.30;;;15.00;69.30;;;;;;5029615;28;20286;-33
2023/09/30 01:33:54;;;;;;;6.43;5.03;;;14.90;69.30;;;;;;5047274;28;20211;-34
2023/09/30 01:36:22;;;;;;;5.70;5.00;;;14.90;69.30;;;;;;5046410;28;20219;-33
2023/09/30 01:38:51;;;;;;;7.83;5.10;;;14.90;69.30;;;;;;5046130;28;20216;-34
2023/09/30 01:41:19;;;;;;;9.60;5.60;;;14.90;69.30;;;;;;5047691;28;20198;-33
2023/09/30 01:43:46;;;;;;;7.60;5.03;;;14.90;69.30;;;;;;5046033;28;20698;-33
2023/09/30 01:46:14;;;;;;;7.20;5.47;;;14.90;69.30;;;;;;5029998;28;20216;-33
2023/09/30 01:48:41;;;;;;;6.10;5.43;;;14.80;69.20;;;;;;5045842;28;20319;-33
2023/09/30 01:51:08;;;;;;;7.33;5.60;;;14.80;69.30;;;;;;5048098;28;20311;-33
2023/09/30 01:53:36;;;;;;;7.63;5.33;;;14.80;69.40;;;;;;5046177;28;20417;-33
2023/09/30 01:56:03;;;;;;;9.40;5.27;;;14.80;69.40;;;;;;5047552;28;20579;-33
2023/09/30 01:58:32;;;;;;;7.50;5.37;;;14.80;69.40;;;;;;5045858;28;20223;-33
2023/09/30 02:01:06;;;;;;;9.30;6.40;;;14.80;69.50;;;;;;5047117;28;20335;-33
2023/09/30 02:03:33;;;;;;;8.37;5.53;;;14.80;69.50;;;;;;5047253;28;20230;-33
2023/09/30 02:06:00;;;;;;;7.90;5.53;;;14.80;69.50;;;;;;5047279;28;20239;-33
2023/09/30 02:08:28;;;;;;;8.33;5.57;;;14.80;69.50;;;;;;5047004;28;20215;-33
2023/09/30 02:10:55;;;;;;;8.27;5.60;;;14.80;69.50;;;;;;5046346;28;20224;-33
2023/09/30 02:13:22;;;;;;;9.17;5.93;;;14.80;69.50;;;;;;5045345;28;20564;-33
2023/09/30 02:15:49;;;;;;;8.53;6.43;;;14.80;69.60;;;;;;5045399;28;20231;-33
2023/09/30 02:18:19;;;;;;;11.20;6.40;;;14.70;69.60;;;;;;5045938;28;20670;-33
2023/09/30 02:20:46;;;;;;;9.20;5.40;;;14.70;69.60;;;;;;5045220;28;20617;-33
2023/09/30 02:23:15;;;;;;;10.00;6.27;;;14.70;69.60;;;;;;5045201;28;20219;-33
2023/09/30 02:25:46;;;;;;;8.13;5.77;;;14.70;69.60;;;;;;5045442;28;20778;-33
2023/09/30 02:28:13;;;;;;;9.57;6.00;;;14.70;69.60;;;;;;5045420;28;20254;-33
2023/09/30 02:30:40;;;;;;;10.83;6.13;;;14.70;69.60;;;;;;5046989;28;20220;-33
2023/09/30 02:33:07;;;;;;;12.20;6.47;;;14.70;69.60;;;;;;5045486;28;20559;-33
2023/09/30 02:35:35;;;;;;;9.57;6.13;;;14.70;70.50;;;;;;5046678;28;20204;-33
2023/09/30 02:38:02;;;;;;;10.50;6.57;;;14.70;69.70;;;;;;5046586;28;20213;-33
2023/09/30 02:40:29;;;;;;;8.23;6.07;;;14.70;69.70;;;;;;5045236;28;20207;-33
2023/09/30 02:42:57;;;;;;;12.00;6.50;;;14.60;69.70;;;;;;5044716;28;20291;-33
2023/09/30 02:45:26;;;;;;;11.43;6.70;;;14.60;69.70;;;;;;5046656;28;20212;-33
2023/09/30 02:47:53;;;;;;;8.87;7.00;;;14.60;69.70;;;;;;5046140;28;20212;-33
2023/09/30 02:50:21;;;;;;;11.23;6.90;;;14.60;69.70;;;;;;5046263;28;20209;-33
2023/09/30 02:52:51;;;;;;;13.50;7.70;;;14.60;69.70;;;;;;5046960;28;20199;-33
2023/09/30 02:55:21;;;;;;;9.13;7.17;;;14.60;69.80;;;;;;5046191;28;20236;-33
2023/09/30 02:57:48;;;;;;;13.33;7.67;;;14.60;69.80;;;;;;5044874;28;20678;-33
2023/09/30 03:00:25;;;;;;;13.37;7.93;;;14.50;69.80;;;;;;5045728;28;20725;-33
2023/09/30 03:02:56;;;;;;;12.43;8.13;;;14.50;69.80;;;;;;5044649;28;20208;-33
2023/09/30 03:05:23;;;;;;;10.90;7.40;;;14.60;69.90;;;;;;5047057;28;20222;-33
2023/09/30 03:07:51;;;;;;;10.97;7.37;;;14.50;69.90;;;;;;5044960;28;20208;-33
2023/09/30 03:10:20;;;;;;;14.63;7.67;;;14.50;69.90;;;;;;5044443;28;20573;-33
2023/09/30 03:12:48;;;;;;;10.83;6.70;;;14.50;69.90;;;;;;5044862;28;20211;-33
2023/09/30 03:15:16;;;;;;;11.80;7.27;;;14.50;69.90;;;;;;5044299;28;20583;-33
2023/09/30 03:17:43;;;;;;;15.00;8.33;;;14.50;69.90;;;;;;5044376;28;20210;-33
2023/09/30 03:20:14;;;;;;;14.57;7.30;;;14.50;69.90;;;;;;5045672;28;20204;-33
2023/09/30 03:22:42;;;;;;;17.33;7.37;;;14.50;70.00;;;;;;5043729;28;20816;-33
2023/09/30 03:25:17;;;;;;;11.40;7.70;;;14.50;70.00;;;;;;5044239;28;20223;-33
2023/09/30 03:27:46;;;;;;;14.47;8.40;;;14.50;70.00;;;;;;5044626;28;20279;-33
2023/09/30 03:30:15;;;;;;;15.17;8.00;;;14.50;70.00;;;;;;5045749;28;20216;-33
2023/09/30 03:32:43;;;;;;;11.57;7.80;;;14.50;70.10;;;;;;5045567;28;20245;-33
2023/09/30 03:35:16;;;;;;;12.87;8.03;;;14.50;70.10;;;;;;5045499;28;20212;-33
2023/09/30 03:37:46;;;;;;;14.53;8.30;;;14.50;70.10;;;;;;5045762;28;20839;-33
2023/09/30 03:40:18;;;;;;;12.20;8.60;;;14.50;70.10;;;;;;5045591;28;20196;-33
2023/09/30 03:42:49;;;;;;;9.93;7.07;;;14.50;70.10;;;;;;5046143;28;20699;-33
2023/09/30 03:45:18;;;;;;;17.43;9.60;;;14.50;70.10;;;;;;5044350;28;20192;-33
2023/09/30 03:47:48;;;;;;;12.20;8.77;;;14.50;70.10;;;;;;5045232;28;20591;-33
2023/09/30 03:50:18;;;;;;;15.57;9.10;;;14.50;70.20;;;;;;5045409;28;20286;-33
2023/09/30 03:52:45;;;;;;;16.07;10.23;;;14.50;70.10;;;;;;5027218;28;20759;-33
2023/09/30 03:55:20;;;;;;;17.27;10.07;;;14.50;70.20;;;;;;5044220;28;20216;-33
2023/09/30 03:57:50;;;;;;;15.73;9.17;;;14.50;70.20;;;;;;5045053;28;20202;-33
2023/09/30 04:00:19;;;;;;;15.17;9.90;;;14.50;70.20;;;;;;5044977;28;20255;-33
2023/09/30 04:02:58;;;;;;;15.47;9.97;;;14.50;70.20;;;;;;5043539;28;20203;-33
2023/09/30 04:05:29;;;;;;;14.00;10.03;;;14.40;70.20;;;;;;5044008;28;20235;-33
2023/09/30 04:07:59;;;;;;;17.03;9.87;;;14.40;70.20;;;;;;5045493;28;20420;-33
2023/09/30 04:10:27;;;;;;;15.17;9.60;;;14.40;70.30;;;;;;5044915;28;20593;-33
2023/09/30 04:12:54;;;;;;;17.13;10.30;;;14.40;70.30;;;;;;5045173;28;20238;-33
2023/09/30 04:15:22;;;;;;;16.13;10.00;;;14.40;70.20;;;;;;5027161;28;20224;-33
2023/09/30 04:17:52;;;;;;;14.87;9.30;;;14.40;70.30;;;;;;5045139;28;20231;-33
2023/09/30 04:20:23;;;;;;;16.10;10.07;;;14.30;70.20;;;;;;5045375;28;20202;-33
2023/09/30 04:22:51;;;;;;;15.83;9.80;;;14.40;70.30;;;;;;5044888;28;20313;-33
2023/09/30 04:25:18;;;;;;;15.20;10.50;;;14.40;70.30;;;;;;5045011;28;20200;-33
2023/09/30 04:27:48;;;;;;;17.03;10.97;;;14.30;70.30;;;;;;5043837;28;20212;-33
2023/09/30 04:30:17;;;;;;;15.67;11.57;;;14.30;70.30;;;;;;5043570;28;20200;-33
2023/09/30 04:32:45;;;;;;;20.77;10.87;;;14.30;70.30;;;;;;5043099;28;20236;-33
2023/09/30 04:35:12;;;;;;;18.63;10.83;;;14.30;70.30;;;;;;5045630;28;20200;-33
2023/09/30 04:37:39;;;;;;;14.33;9.73;;;14.30;70.30;;;;;;5049093;28;20200;-33
2023/09/30 04:40:15;;;;;;;17.47;11.83;;;14.20;70.30;;;;;;5047671;28;20208;-33
2023/09/30 04:42:46;;;;;;;17.43;11.30;;;14.20;70.30;;;;;;5047822;28;20206;-33
2023/09/30 04:45:16;;;;;;;21.17;12.10;;;14.20;70.40;;;;;;5048810;28;20374;-33
2023/09/30 04:47:48;;;;;;;15.50;10.67;;;14.20;70.30;;;;;;5048348;28;20204;-33
2023/09/30 04:50:21;;;;;;;20.00;11.80;;;14.20;70.40;;;;;;5047226;28;20242;-33
2023/09/30 04:52:53;;;;;;;21.90;12.83;;;14.20;70.30;;;;;;5048370;28;20219;-33
2023/09/30 04:55:20;;;;;;;19.83;12.47;;;14.20;70.30;;;;;;5049335;28;20196;-33
2023/09/30 04:57:52;;;;;;;19.37;12.00;;;14.10;70.30;;;;;;5047213;28;20560;-33
2023/09/30 05:00:24;;;;;;;21.70;13.10;;;14.20;70.40;;;;;;5047208;28;20244;-33
2023/09/30 05:02:58;;;;;;;17.27;13.13;;;14.10;70.40;;;;;;5047172;28;20597;-33
2023/09/30 05:05:26;;;;;;;19.87;13.97;;;14.10;70.40;;;;;;5048597;28;20594;-33
2023/09/30 05:07:53;;;;;;;21.93;14.13;;;14.10;70.40;;;;;;5046906;28;20204;-33
2023/09/30 05:10:24;;;;;;;21.30;14.00;;;14.10;70.40;;;;;;5048292;28;20224;-33
2023/09/30 05:12:54;;;;;;;21.00;13.67;;;14.10;70.50;;;;;;5048249;28;20702;-33
2023/09/30 05:15:23;;;;;;;23.73;14.43;;;14.10;70.40;;;;;;5046873;28;20219;-33
2023/09/30 05:17:53;;;;;;;21.00;13.87;;;14.10;70.50;;;;;;5048472;28;20196;-33
2023/09/30 05:20:20;;;;;;;21.40;13.60;;;14.10;70.50;;;;;;5030648;28;20203;-32
2023/09/30 05:22:48;;;;;;;24.80;14.00;;;14.10;70.50;;;;;;5048150;28;20208;-33
2023/09/30 05:25:18;;;;;;;19.40;12.43;;;14.00;70.50;;;;;;5046177;28;20240;-33
2023/09/30 05:27:48;;;;;;;22.03;12.93;;;14.00;70.50;;;;;;5047890;28;20275;-33
2023/09/30 05:30:20;;;;;;;21.57;13.60;;;14.00;70.50;;;;;;5046465;28;20208;-33
2023/09/30 05:32:47;;;;;;;22.53;13.67;;;14.00;70.50;;;;;;5048059;28;20263;-32
2023/09/30 05:35:17;;;;;;;18.53;12.77;;;14.00;70.50;;;;;;5046516;28;20215;-33
2023/09/30 05:37:45;;;;;;;18.17;12.67;;;14.00;70.50;;;;;;5046281;28;20200;-33
2023/09/30 05:40:30;;;;;;;19.87;13.57;;;13.90;70.50;;;;;;5046468;28;20207;-33
2023/09/30 05:42:59;;;;;;;22.03;12.93;;;13.90;70.50;;;;;;5046116;28;20745;-33
2023/09/30 05:45:28;;;;;;;27.57;14.77;;;13.90;70.50;;;;;;5045594;28;20224;-33
2023/09/30 05:47:57;;;;;;;25.80;14.30;;;13.90;70.50;;;;;;5045800;28;20291;-32
2023/09/30 05:50:26;;;;;;;21.97;13.03;;;13.90;70.60;;;;;;5047874;28;20338;-33
2023/09/30 05:52:56;;;;;;;25.50;12.20;;;13.90;70.60;;;;;;5045457;28;20378;-33
2023/09/30 05:55:25;;;;;;;24.90;13.90;;;13.90;70.60;;;;;;5047312;28;20231;-33
2023/09/30 05:57:55;;;;;;;22.27;12.97;;;13.90;70.60;;;;;;5045803;28;20577;-33
2023/09/30 06:00:29;;;;;;;26.40;12.83;;;13.80;70.60;;;;;;5047139;28;20239;-32
2023/09/30 06:02:57;;;;;;;32.13;13.17;;;13.80;70.60;;;;;;5047132;28;20490;-33
2023/09/30 06:05:29;;;;;;;29.70;13.23;;;13.80;70.70;;;;;;5045696;28;20299;-33
2023/09/30 06:08:03;;;;;;;30.83;13.43;;;13.80;70.70;;;;;;5046005;28;20731;-33
2023/09/30 06:10:31;;;;;;;19.53;12.90;;;13.80;70.70;;;;;;5047851;28;20204;-32
2023/09/30 06:12:59;;;;;;;21.90;12.63;;;13.80;70.70;;;;;;5046978;28;20567;-32
2023/09/30 06:15:27;;;;;;;23.10;12.60;;;13.80;70.80;;;;;;5047327;28;20277;-32
2023/09/30 06:17:59;;;;;;;24.27;12.60;;;13.80;70.70;;;;;;5046926;28;20220;-32
2023/09/30 06:20:30;;;;;;;36.60;14.30;;;13.80;70.80;;;;;;5046945;28;20503;-33
2023/09/30 06:23:03;;;;;;;25.73;13.97;;;13.80;70.80;;;;;;5045138;28;20262;-33
2023/09/30 06:25:33;;;;;;;23.33;12.77;;;13.80;70.90;;;;;;5046818;28;20196;-33
2023/09/30 06:28:00;;;;;;;21.00;12.70;;;13.80;70.90;;;;;;5046721;28;20219;-32
2023/09/30 06:30:32;;;;;;;21.50;12.13;;;13.80;70.90;;;;;;5045453;28;20690;-32
2023/09/30 06:33:01;;;;;;;21.50;12.33;;;13.80;70.90;;;;;;5045137;28;20228;-33
2023/09/30 06:35:37;;;;;;;29.03;14.47;;;13.80;71.00;;;;;;5046732;28;20204;-33
2023/09/30 06:38:06;;;;;;;30.40;14.07;;;13.80;70.90;;;;;;5046428;28;20196;-32
2023/09/30 06:40:34;;;;;;;23.23;12.87;;;13.80;70.90;;;;;;5046640;28;20658;-33
2023/09/30 06:43:06;;;;;;;23.83;12.27;;;13.80;71.00;;;;;;5046841;28;20623;-32
2023/09/30 06:45:33;;;;;;;20.27;11.50;;;13.80;71.00;;;;;;5046824;28;20250;-33
2023/09/30 06:48:00;;;;;;;22.73;11.37;;;13.80;71.10;;;;;;5046729;28;20287;-33
2023/09/30 06:50:27;;;;;;;22.40;11.97;;;13.80;71.10;;;;;;5046413;28;20635;-32
2023/09/30 06:52:55;;;;;;;19.47;11.93;;;13.90;71.30;;;;;;5046306;28;20285;-33
2023/09/30 06:55:22;;;;;;;28.30;12.83;;;13.90;71.20;;;;;;5046527;28;20439;-29
2023/09/30 06:57:49;;;;;;;19.83;11.57;;;13.90;71.30;;;;;;5046260;28;20705;-29
2023/09/30 07:00:18;;;;;;;27.33;12.83;;;13.90;71.30;;;;;;5046062;28;20235;-29
2023/09/30 07:02:46;;;;;;;27.30;13.37;;;13.90;71.30;;;;;;5044751;28;20211;-29
2023/09/30 07:05:15;;;;;;;25.67;12.40;;;14.00;71.40;;;;;;5046302;28;20204;-29
2023/09/30 07:07:46;;;;;;;24.07;13.03;;;14.00;71.40;;;;;;5044667;28;20776;-29
2023/09/30 07:10:14;;;;;;;21.13;11.47;;;14.00;71.50;;;;;;5046114;28;20208;-29
2023/09/30 07:12:41;;;;;;;22.30;12.67;;;14.10;71.50;;;;;;5046026;28;20228;-29
2023/09/30 07:15:13;;;;;;;23.90;13.10;;;14.10;71.50;;;;;;5044191;28;20212;-29
2023/09/30 07:17:45;;;;;;;22.87;12.20;;;14.10;71.50;;;;;;5045569;28;20196;-29
2023/09/30 07:20:14;;;;;;;24.50;12.23;;;14.10;71.60;;;;;;5045738;28;20295;-29
2023/09/30 07:22:42;;;;;;;25.57;12.43;;;14.20;71.70;;;;;;5046077;28;20200;-30
2023/09/30 07:25:25;;;;;;;25.40;12.20;;;14.20;71.70;;;;;;5045983;28;20220;-29
2023/09/30 07:27:54;;;;;;;22.87;11.70;;;14.30;71.70;;;;;;5044292;28;20254;-29
2023/09/30 07:30:22;;;;;;;23.67;10.93;;;14.30;71.80;;;;;;5045921;28;20221;-29
2023/09/30 07:32:50;;;;;;;21.10;11.00;;;14.30;71.70;;;;;;5045492;28;20220;-33
2023/09/30 07:35:20;;;;;;;22.30;10.23;;;14.40;71.90;;;;;;5045780;28;20309;-33
2023/09/30 07:37:52;;;;;;;19.73;10.53;;;14.40;71.80;;;;;;5043964;28;20694;-33
2023/09/30 07:40:22;;;;;;;23.33;10.13;;;14.50;71.90;;;;;;5045325;28;20223;-33
2023/09/30 07:42:52;;;;;;;19.33;9.80;;;14.50;71.90;;;;;;5043755;28;20319;-33
2023/09/30 07:45:21;;;;;;;32.67;10.47;;;14.60;72.00;;;;;;5045644;28;20672;-33
2023/09/30 07:47:51;;;;;;;23.00;9.60;;;14.60;72.00;;;;;;5044368;28;20295;-33
2023/09/30 07:50:18;;;;;;;21.43;10.23;;;14.70;72.00;;;;;;5045403;28;20619;-33
2023/09/30 07:52:46;;;;;;;19.50;9.70;;;14.70;72.10;;;;;;5043604;28;20694;-33
2023/09/30 07:55:13;;;;;;;23.23;9.27;;;14.70;72.10;;;;;;5043375;28;20196;-33
2023/09/30 07:57:45;;;;;;;19.67;9.23;;;14.80;72.20;;;;;;5043585;28;20200;-33
2023/09/30 08:00:16;;;;;;;20.27;9.27;;;14.80;72.20;;;;;;5044132;28;20271;-33
2023/09/30 08:02:44;;;;;;;21.87;9.57;;;14.90;72.20;;;;;;5044190;28;20608;-33
2023/09/30 08:05:13;;;;;;;22.50;9.47;;;14.90;72.20;;;;;;5045094;28;20764;-33
2023/09/30 08:07:42;;;;;;;24.57;9.80;;;15.00;72.20;;;;;;5044970;28;20654;-33
2023/09/30 08:10:13;;;;;;;25.13;9.80;;;15.00;72.20;;;;;;5042972;28;20224;-33
2023/09/30 08:12:41;;;;;;;22.23;9.43;;;15.10;72.30;;;;;;5044677;28;20228;-33
2023/09/30 08:15:13;;;;;;;22.67;9.67;;;15.10;72.40;;;;;;5045058;28;20219;-33
2023/09/30 08:17:40;;;;;;;22.10;8.43;;;15.20;72.50;;;;;;5045038;28;20219;-33
2023/09/30 08:20:09;;;;;;;17.20;8.53;;;15.20;72.40;;;;;;5044840;28;20324;-33
2023/09/30 08:22:37;;;;;;;16.60;7.87;;;15.30;72.50;;;;;;5044679;28;20540;-33
2023/09/30 08:25:06;;;;;;;22.70;8.63;;;15.30;72.40;;;;;;5043224;28;20208;-33
2023/09/30 08:27:34;;;;;;;15.63;8.33;;;15.40;72.50;;;;;;5043279;28;20219;-33
2023/09/30 08:30:05;;;;;;;22.83;9.10;;;15.40;72.50;;;;;;5044723;28;20204;-33
2023/09/30 08:32:34;;;;;;;22.87;8.13;;;15.40;71.90;;;;;;5044768;28;20507;-29
2023/09/30 08:35:06;;;;;;;21.23;8.93;;;15.50;72.60;;;;;;5027072;28;20247;-29
2023/09/30 08:37:36;;;;;;;18.83;9.03;;;15.50;72.60;;;;;;5045422;28;20192;-29
2023/09/30 08:40:04;;;;;;;18.37;8.70;;;15.60;72.60;;;;;;5043398;28;20215;-29
2023/09/30 08:42:33;;;;;;;21.20;8.40;;;15.70;72.70;;;;;;5043391;28;20200;-29
2023/09/30 08:45:08;;;;;;;22.67;7.83;;;15.70;72.70;;;;;;5026699;28;20216;-29
2023/09/30 08:47:36;;;;;;;19.33;8.37;;;15.80;72.80;;;;;;5044570;28;20208;-29
2023/09/30 08:50:08;;;;;;;19.30;8.13;;;15.80;72.70;;;;;;5042708;28;20204;-29
2023/09/30 08:52:43;;;;;;;25.00;9.27;;;15.90;72.80;;;;;;5044144;28;20728;-29
2023/09/30 08:55:13;;;;;;;23.10;9.10;;;16.00;72.90;;;;;;5044607;28;20223;-29
2023/09/30 08:57:42;;;;;;;24.93;9.30;;;16.00;72.80;;;;;;5042436;28;20224;-33
2023/09/30 09:00:12;;;;;;;26.07;8.90;;;16.10;72.90;;;;;;5044297;28;20460;-34
2023/09/30 09:02:41;;;;;;;20.80;8.87;;;16.10;73.00;;;;;;5044231;28;20666;-33
2023/09/30 09:05:09;;;;;;;22.63;8.30;;;16.20;73.70;;;;;;5044286;28;20295;-33
2023/09/30 09:07:39;;;;;;;21.10;8.77;;;16.20;72.90;;;;;;5044653;28;20212;-34
2023/09/30 09:10:12;;;;;;;24.83;9.30;;;16.30;73.00;;;;;;5044097;28;20200;-34
2023/09/30 09:12:40;;;;;;;22.48;8.55;;;16.30;73.00;;;;;;5044886;28;20698;-33
2023/09/30 09:15:21;;;;;;;22.43;8.90;;;16.40;72.90;;;;;;5044267;28;20215;-33
2023/09/30 09:17:50;;;;;;;19.77;8.33;;;16.40;72.90;;;;;;5043184;28;20218;-33
2023/09/30 09:20:23;;;;;;;21.60;8.33;;;16.50;73.00;;;;;;5043965;28;20614;-33
2023/09/30 09:23:00;;;;;;;20.13;7.78;;;16.50;73.00;;;;;;5045710;28;20208;-33
2023/09/30 09:25:28;;;;;;;17.75;7.43;;;16.50;73.00;;;;;;5047948;28;20202;-33
2023/09/30 09:27:56;;;;;;;20.35;8.07;;;16.60;73.10;;;;;;5046181;28;20228;-33
2023/09/30 09:30:25;;;;;;;21.33;7.93;;;16.60;73.10;;;;;;5046091;28;20235;-33
2023/09/30 09:33:00;;;;;;;18.30;7.53;;;16.70;73.20;;;;;;5046055;28;20643;-33
2023/09/30 09:35:34;;;;;;;17.77;6.80;;;16.80;73.20;;;;;;5048153;28;20291;-33
2023/09/30 09:38:04;;;;;;;23.75;7.38;;;16.80;73.10;;;;;;5047522;28;20208;-37
2023/09/30 09:40:35;;;;;;;18.00;7.70;;;16.90;73.10;;;;;;5047484;28;20309;-33
2023/09/30 09:43:05;;;;;;;19.10;7.32;;;16.90;73.20;;;;;;5047787;28;20208;-33
2023/09/30 09:45:38;;;;;;;18.02;6.57;;;16.90;73.10;;;;;;5045688;28;20209;-33
2023/09/30 09:48:06;;;;;;;16.60;6.73;;;17.00;73.30;;;;;;5046159;28;20208;-33
2023/09/30 09:50:35;;;;;;;14.53;6.07;;;17.10;73.20;;;;;;5047739;28;20211;-29
2023/09/30 09:53:06;;;;;;;15.87;6.20;;;17.10;73.10;;;;;;5046104;28;20224;-28
2023/09/30 09:55:35;;;;;;;13.87;5.97;;;17.20;73.20;;;;;;5045999;28;20211;-28
2023/09/30 09:58:06;;;;;;;21.10;6.70;;;17.20;73.10;;;;;;5047095;28;20266;-29
2023/09/30 10:00:36;;;;;;;16.53;6.07;;;17.20;73.00;;;;;;5045647;28;20857;-29
2023/09/30 10:03:03;;;;;;;19.87;6.83;;;17.30;73.10;;;;;;5045718;28;20218;-29
2023/09/30 10:05:31;;;;;;;13.57;6.28;;;17.30;73.10;;;;;;5045768;28;20804;-29
2023/09/30 10:08:20;;;;;;;13.18;5.28;;;17.40;73.20;;;;;;5045663;28;20192;-29
2023/09/30 10:10:47;;;;;;;12.95;4.43;;;17.40;73.30;;;;;;5047081;28;20200;-29
2023/09/30 10:13:52;;;;;;;15.93;5.37;;;17.40;73.10;;;;;;5045470;28;20228;-29
2023/09/30 10:16:38;;;;;;;10.30;4.22;;;17.50;73.20;;;;;;5047143;28;20608;-29
2023/09/30 10:19:09;;;;;;;17.90;4.72;;;17.50;73.30;;;;;;5045451;28;20216;-29
2023/09/30 10:21:39;;;;;;;10.27;4.60;;;17.60;73.30;;;;;;5045587;28;21001;-29
2023/09/30 10:24:42;;;;;;;13.57;4.60;;;17.60;73.20;;;;;;5045532;28;20197;-29
2023/09/30 10:27:22;;;;;;;12.47;5.07;;;17.70;73.40;;;;;;5044577;28;20212;-29
2023/09/30 10:30:09;;;;;;;14.73;5.20;;;17.70;73.40;;;;;;5046987;28;20232;-29
2023/09/30 10:32:57;;;;;;;12.43;4.75;;;17.80;73.30;;;;;;5044829;28;20701;-28
2023/09/30 10:35:27;;;;;;;11.63;4.20;;;17.90;73.40;;;;;;5046818;28;20201;-29
2023/09/30 10:38:22;;;;;;;13.60;4.45;;;17.90;73.30;;;;;;5044759;28;20232;-29
2023/09/30 10:40:52;;;;;;;10.77;4.57;;;18.00;73.30;;;;;;5046306;28;20561;-29
2023/09/30 10:43:39;;;;;;;8.98;3.60;;;18.00;73.10;;;;;;5045021;28;20686;-29
2023/09/30 10:46:29;;;;;;;12.20;3.90;;;18.10;73.30;;;;;;5045392;28;20258;-29
2023/09/30 10:48:57;;;;;;;15.10;4.45;;;18.10;73.30;;;;;;5046128;28;20295;-29
2023/09/30 10:51:24;;;;;;;12.88;3.97;;;18.20;73.30;;;;;;5044613;28;20201;-29
2023/09/30 10:53:56;;;;;;;8.43;2.90;;;18.20;73.20;;;;;;5044520;28;20417;-29
2023/09/30 10:56:32;;;;;;;8.60;2.80;;;18.30;73.20;;;;;;5046433;28;20207;-29
2023/09/30 10:59:02;;;;;;;7.35;2.88;;;18.30;73.10;;;;;;5045266;28;20717;-29
2023/09/30 11:01:34;;;;;;;9.75;2.90;;;18.40;73.00;;;;;;5046199;28;20244;-29
2023/09/30 11:04:04;;;;;;;10.30;3.35;;;18.40;73.00;;;;;;5045073;28;20208;-29
2023/09/30 11:06:33;;;;;;;11.25;3.42;;;18.50;73.10;;;;;;5046514;28;20223;-29
2023/09/30 11:09:03;;;;;;;6.97;3.00;;;18.50;72.90;;;;;;5045752;28;20358;-29
2023/09/30 11:11:34;;;;;;;9.05;3.50;;;18.50;72.90;;;;;;5046061;28;20258;-29
2023/09/30 11:14:15;;;;;;;8.52;3.17;;;18.60;72.90;;;;;;5045837;28;20228;-29
2023/09/30 11:16:44;;;;;;;11.13;3.33;;;18.60;72.80;;;;;;5044356;28;20319;-29
2023/09/30 11:19:16;;;;;;;8.05;3.42;;;18.60;72.80;;;;;;5045636;28;20208;-29
2023/09/30 11:21:43;;;;;;;7.93;3.35;;;18.70;72.80;;;;;;5045443;28;20280;-29
2023/09/30 11:24:11;;;;;;;11.82;3.33;;;18.70;72.80;;;;;;5045889;28;20204;-29
2023/09/30 11:26:41;;;;;;;8.70;3.20;;;18.70;72.80;;;;;;5046036;28;20254;-34
2023/09/30 11:29:13;;;;;;;8.43;3.08;;;18.80;72.80;;;;;;5044309;28;20696;-33
2023/09/30 11:31:42;;;;;;;10.00;3.53;;;18.80;72.80;;;;;;5044117;28;20751;-33
2023/09/30 11:34:12;;;;;;;8.40;3.08;;;18.90;72.80;;;;;;5045642;28;20209;-33
2023/09/30 11:36:47;;;;;;;10.65;2.97;;;18.90;72.80;;;;;;5045948;28;20633;-33
2023/09/30 11:39:31;;;;;;;8.75;3.30;;;19.00;72.80;;;;;;5044449;28;20290;-34
2023/09/30 11:42:01;;;;;;;9.77;3.00;;;19.00;72.80;;;;;;5043942;28;20216;-33
2023/09/30 11:44:31;;;;;;;8.43;3.05;;;19.10;72.80;;;;;;5043098;28;20943;-34
2023/09/30 11:47:04;;;;;;;7.50;3.17;;;19.10;72.70;;;;;;5043531;28;20246;-34
2023/09/30 11:49:40;;;;;;;8.30;3.08;;;19.20;72.80;;;;;;5043705;28;20717;-33
2023/09/30 11:52:13;;;;;;;9.13;3.10;;;19.20;72.70;;;;;;5043405;28;20212;-33
2023/09/30 11:54:44;;;;;;;9.57;3.00;;;19.30;72.60;;;;;;5043427;28;20494;-33
2023/09/30 11:57:16;;;;;;;8.15;3.05;;;19.30;72.40;;;;;;5043337;28;20212;-30
2023/09/30 11:59:46;;;;;;;10.18;3.20;;;19.30;72.40;;;;;;5045048;28;20236;-29
2023/09/30 12:02:15;;;;;;;7.00;3.15;;;19.30;72.30;;;;;;5045232;28;20536;-29
2023/09/30 12:04:46;;;;;;;8.65;2.97;;;19.40;72.30;;;;;;5045536;28;20261;-29
2023/09/30 12:07:15;;;;;;;6.75;2.95;;;19.40;72.30;;;;;;5044907;28;20262;-29
2023/09/30 12:09:44;;;;;;;7.60;2.92;;;19.40;72.20;;;;;;5027051;28;20284;-29
2023/09/30 12:12:14;;;;;;;11.80;3.17;;;19.50;72.30;;;;;;5043785;28;20204;-29
2023/09/30 12:14:42;;;;;;;11.90;3.00;;;19.50;72.20;;;;;;5043121;28;20239;-33
2023/09/30 12:17:10;;;;;;;7.55;3.05;;;19.50;72.10;;;;;;5043506;28;20196;-33
2023/09/30 12:19:43;;;;;;;9.05;2.85;;;19.50;72.10;;;;;;5044596;28;20204;-34
2023/09/30 12:22:10;;;;;;;9.40;3.03;;;19.50;72.10;;;;;;5044753;28;20203;-29
2023/09/30 12:24:39;;;;;;;8.18;3.00;;;19.50;72.00;;;;;;5026486;28;20220;-29
2023/09/30 12:27:07;;;;;;;9.45;2.63;;;19.50;71.90;;;;;;5044855;28;20269;-29
2023/09/30 12:29:34;;;;;;;9.65;3.22;;;19.60;71.90;;;;;;5044367;28;20200;-30
2023/09/30 12:32:01;;;;;;;7.82;3.33;;;19.60;71.90;;;;;;5044081;28;20204;-29
2023/09/30 12:34:30;;;;;;;7.32;2.50;;;19.60;71.90;;;;;;5042767;28;20235;-29
2023/09/30 12:36:58;;;;;;;11.80;3.13;;;19.60;71.80;;;;;;5045069;28;20196;-29
2023/09/30 12:39:25;;;;;;;7.75;3.17;;;19.60;71.80;;;;;;5044533;28;20214;-29
2023/09/30 12:41:54;;;;;;;8.02;2.72;;;19.60;71.80;;;;;;5044301;28;20199;-29
2023/09/30 12:44:26;;;;;;;10.48;2.72;;;19.70;72.00;;;;;;5042860;28;20606;-34
2023/09/30 12:46:58;;;;;;;8.25;2.78;;;19.80;72.10;;;;;;5044466;28;20231;-34
2023/09/30 12:49:25;;;;;;;9.38;2.80;;;19.80;72.00;;;;;;5042875;28;20927;-34
2023/09/30 12:51:56;;;;;;;7.85;2.80;;;19.80;72.00;;;;;;5044769;28;20300;-33
2023/09/30 12:54:23;;;;;;;12.07;3.38;;;19.90;72.00;;;;;;5044651;28;20231;-33